Time;durP1;ratioP1;P1;durP2;ratioP2;P2;SDS_P1;SDS_P2;PMS_P1;PMS_P2;Temp;Humidity;BMP_temperature;BMP_pressure;BME280_temperature;BME280_humidity;BME280_pressure;Samples;Min_cycle;Max_cycle;Signal;HPM_P1;HPM_P2
2023/04/21 00:01:11;;;;;;;26.07;18.07;;;;;;;16.48;49.95;101634.06;5029955;28;20452;-69
2023/04/21 00:03:38;;;;;;;27.33;18.20;;;;;;;16.50;49.86;101640.16;5030283;28;20025;-69
2023/04/21 00:06:08;;;;;;;30.07;17.00;;;;;;;16.15;51.23;101640.00;5043347;28;20028;-68
2023/04/21 00:08:39;;;;;;;26.37;17.07;;;;;;;16.48;50.26;101647.25;5030541;28;20546;-69
2023/04/21 00:11:05;;;;;;;28.77;17.03;;;;;;;16.44;50.79;101662.28;5028486;28;20021;-68
2023/04/21 00:13:30;;;;;;;27.80;17.23;;;;;;;15.46;53.42;101667.66;5029549;28;20438;-69
2023/04/21 00:15:56;;;;;;;29.33;17.10;;;;;;;14.86;54.68;101664.19;5037917;28;20060;-68
2023/04/21 00:18:21;;;;;;;27.13;16.77;;;;;;;15.58;54.73;101664.81;5048129;28;20033;-69
2023/04/21 00:20:47;;;;;;;26.67;16.50;;;;;;;15.22;55.28;101672.41;5064367;28;20037;-68
2023/04/21 00:23:12;;;;;;;30.20;17.00;;;;;;;14.80;56.96;101674.81;5048011;28;20017;-68
2023/04/21 00:25:38;;;;;;;30.13;17.07;;;;;;;15.10;57.26;101674.34;5041463;28;20353;-68
2023/04/21 00:28:06;;;;;;;25.37;15.67;;;;;;;15.25;54.74;101670.59;5054100;28;20094;-68
2023/04/21 00:30:31;;;;;;;29.17;17.30;;;;;;;14.89;57.72;101665.03;5046960;28;20120;-69
2023/04/21 00:32:57;;;;;;;30.87;17.80;;;;;;;15.28;56.87;101659.16;5049555;28;20103;-68
2023/04/21 00:35:22;;;;;;;29.30;17.53;;;;;;;15.40;54.74;101653.69;5045626;28;20031;-68
2023/04/21 00:37:49;;;;;;;28.70;17.20;;;;;;;14.65;58.35;101655.72;5048965;28;20025;-68
2023/04/21 00:40:14;;;;;;;32.03;16.83;;;;;;;14.16;60.12;101640.53;5067952;28;20039;-69
2023/04/21 00:42:40;;;;;;;31.20;16.93;;;;;;;15.15;57.87;101628.66;5056487;28;20477;-68
2023/04/21 00:45:05;;;;;;;29.10;17.80;;;;;;;15.70;54.16;101621.53;5047874;28;20021;-68
2023/04/21 00:47:31;;;;;;;31.07;17.83;;;;;;;15.74;54.62;101615.31;5060646;28;20370;-69
2023/04/21 00:49:59;;;;;;;35.07;18.03;;;;;;;16.21;53.27;101612.63;5047470;28;20037;-68
2023/04/21 00:52:26;;;;;;;33.53;18.23;;;;;;;16.25;52.57;101616.94;5042632;28;20129;-68
2023/04/21 00:54:53;;;;;;;30.77;17.37;;;;;;;14.92;56.23;101619.38;5060217;28;20035;-68
2023/04/21 00:57:19;;;;;;;36.10;18.93;;;;;;;15.76;54.40;101602.97;5028516;28;20027;-68
2023/04/21 00:59:45;;;;;;;33.03;18.17;;;;;;;15.72;54.22;101601.31;5028418;28;20025;-68
2023/04/21 01:02:10;;;;;;;27.97;16.93;;;;;;;16.21;53.79;101597.69;5028072;28;20076;-68
2023/04/21 01:04:38;;;;;;;29.20;18.07;;;;;;;15.59;54.36;101603.28;5053750;28;20074;-68
2023/04/21 01:07:07;;;;;;;29.90;17.00;;;;;;;14.43;59.27;101608.63;5067925;28;20032;-68
2023/04/21 01:09:33;;;;;;;30.37;17.70;;;;;;;15.22;57.66;101609.19;5048281;28;20065;-69
2023/04/21 01:12:07;;;;;;;33.77;18.93;;;;;;;16.07;54.22;101605.91;5029006;28;20025;-68
2023/04/21 01:14:33;;;;;;;31.47;18.47;;;;;;;16.35;52.96;101600.03;5046398;28;20094;-68
2023/04/21 01:16:58;;;;;;;32.77;17.97;;;;;;;15.91;55.34;101605.34;5051500;28;20024;-68
2023/04/21 01:19:25;;;;;;;30.83;17.67;;;;;;;15.25;55.27;101604.75;5052856;28;20465;-69
2023/04/21 01:21:56;;;;;;;30.80;17.80;;;;;;;15.18;56.29;101602.25;5052171;28;20032;-68
2023/04/21 01:24:22;;;;;;;29.53;16.80;;;;;;;14.91;58.20;101609.72;5049105;28;20021;-68
2023/04/21 01:26:48;;;;;;;34.43;18.77;;;;;;;15.50;55.96;101611.38;5051131;28;20039;-68
2023/04/21 01:29:15;;;;;;;33.23;18.70;;;;;;;14.31;60.82;101614.03;5042925;28;20029;-68
2023/04/21 01:31:40;;;;;;;33.50;18.87;;;;;;;14.64;60.29;101606.59;5040462;28;20035;-69
2023/04/21 01:34:06;;;;;;;31.27;17.37;;;;;;;14.91;58.79;101607.94;5046961;28;20021;-68
2023/04/21 01:36:32;;;;;;;34.20;18.27;;;;;;;15.00;58.67;101598.16;5039367;28;20029;-68
2023/04/21 01:38:57;;;;;;;30.67;18.00;;;;;;;14.63;59.51;101602.25;5050558;28;20067;-68
2023/04/21 01:41:22;;;;;;;32.83;19.37;;;;;;;15.21;58.14;101599.59;5046748;28;20293;-68
2023/04/21 01:43:48;;;;;;;35.20;18.90;;;;;;;15.47;57.28;101598.22;5034416;28;20053;-68
2023/04/21 01:46:13;;;;;;;36.77;18.97;;;;;;;15.70;56.35;101596.06;5053769;28;20021;-69
2023/04/21 01:48:38;;;;;;;33.83;18.97;;;;;;;15.89;54.56;101596.56;5044224;28;20086;-68
2023/04/21 01:51:04;;;;;;;34.27;19.90;;;;;;;15.44;56.59;101584.25;5052270;28;20077;-68
2023/04/21 01:53:29;;;;;;;35.30;18.80;;;;;;;15.48;57.53;101578.91;5045968;28;20116;-69
2023/04/21 01:55:55;;;;;;;33.00;18.43;;;;;;;15.65;56.08;101568.91;5053708;28;20025;-68
2023/04/21 01:58:20;;;;;;;33.13;18.53;;;;;;;15.92;54.67;101574.56;5071336;28;20059;-69
2023/04/21 02:00:46;;;;;;;31.67;18.20;;;;;;;15.87;54.33;101561.47;5071083;28;20028;-68
2023/04/21 02:03:11;;;;;;;35.13;19.83;;;;;;;16.07;54.23;101557.56;5055714;28;20029;-68
2023/04/21 02:05:36;;;;;;;37.60;19.90;;;;;;;15.60;56.36;101557.59;5049156;28;20032;-69
2023/04/21 02:08:02;;;;;;;36.93;20.07;;;;;;;15.00;58.57;101569.22;5067439;28;20033;-68
2023/04/21 02:10:27;;;;;;;33.33;19.20;;;;;;;15.46;57.57;101559.63;5054014;28;20040;-68
2023/04/21 02:12:53;;;;;;;36.27;20.60;;;;;;;15.78;56.00;101561.63;5050415;28;20036;-69
2023/04/21 02:15:18;;;;;;;34.67;19.70;;;;;;;15.58;55.64;101559.41;5051835;28;20020;-69
2023/04/21 02:17:43;;;;;;;34.63;20.20;;;;;;;16.13;53.68;101557.44;5049998;28;20029;-68
2023/04/21 02:20:11;;;;;;;33.93;19.57;;;;;;;16.07;55.23;101555.81;5040011;28;20394;-68
2023/04/21 02:22:37;;;;;;;39.23;20.37;;;;;;;15.40;56.66;101555.31;5031027;28;20021;-68
2023/04/21 02:25:06;;;;;;;35.03;19.83;;;;;;;15.75;55.38;101557.28;5032566;28;20033;-69
2023/04/21 02:27:31;;;;;;;33.83;19.20;;;;;;;15.51;56.41;101552.50;5031620;28;20029;-68
2023/04/21 02:29:56;;;;;;;36.73;19.43;;;;;;;15.73;56.02;101553.81;5052250;28;20025;-69
2023/04/21 02:32:22;;;;;;;35.00;19.83;;;;;;;16.05;54.26;101554.94;5051129;28;20476;-68
2023/04/21 02:34:47;;;;;;;36.37;18.17;;;;;;;16.26;53.52;101550.09;5057708;28;20071;-69
2023/04/21 02:37:13;;;;;;;31.33;18.20;;;;;;;16.36;53.16;101548.13;5049258;28;20037;-68
2023/04/21 02:39:38;;;;;;;40.97;21.00;;;;;;;16.09;54.11;101543.44;5048229;28;20029;-69
2023/04/21 02:42:04;;;;;;;36.20;19.87;;;;;;;15.36;56.84;101537.84;5029332;28;20029;-68
2023/04/21 02:44:29;;;;;;;37.93;20.60;;;;;;;16.19;54.46;101535.34;5043677;28;20059;-69
2023/04/21 02:46:55;;;;;;;38.73;22.13;;;;;;;16.20;54.33;101537.06;5070308;28;20814;-69
2023/04/21 02:49:20;;;;;;;44.73;21.57;;;;;;;16.44;53.58;101548.81;5032216;28;20028;-69
2023/04/21 02:51:46;;;;;;;40.70;20.73;;;;;;;15.98;55.12;101542.81;5031727;28;20052;-69
2023/04/21 02:54:11;;;;;;;40.93;20.77;;;;;;;16.20;54.43;101537.94;5029843;28;20040;-68
2023/04/21 02:56:37;;;;;;;36.47;19.87;;;;;;;16.22;54.83;101516.78;5044725;28;20043;-69
2023/04/21 02:59:02;;;;;;;35.80;20.00;;;;;;;16.75;53.56;101519.91;5063845;28;20032;-68
2023/04/21 03:01:27;;;;;;;37.87;19.60;;;;;;;16.24;54.44;101520.28;5041626;28;20187;-68
2023/04/21 03:03:53;;;;;;;41.47;21.13;;;;;;;16.58;53.60;101516.81;5047542;28;20025;-70
2023/04/21 03:06:18;;;;;;;42.80;22.13;;;;;;;16.82;52.48;101525.06;5060732;28;20040;-68
2023/04/21 03:08:43;;;;;;;42.90;22.40;;;;;;;16.96;52.05;101533.53;5049649;28;20071;-68
2023/04/21 03:11:09;;;;;;;39.90;22.40;;;;;;;17.06;51.63;101535.03;5044372;28;20105;-68
2023/04/21 03:13:34;;;;;;;40.00;22.23;;;;;;;16.67;53.09;101535.09;5040554;28;20056;-69
2023/04/21 03:16:00;;;;;;;43.30;22.53;;;;;;;16.22;54.13;101535.25;5039194;28;20401;-69
2023/04/21 03:18:26;;;;;;;42.70;23.10;;;;;;;15.83;56.16;101522.06;5030727;28;20036;-69
2023/04/21 03:20:52;;;;;;;42.13;22.03;;;;;;;15.53;56.33;101519.09;5029726;28;20036;-68
2023/04/21 03:23:17;;;;;;;42.50;22.07;;;;;;;16.05;56.26;101515.41;5033380;28;20056;-67
2023/04/21 03:25:42;;;;;;;42.57;22.67;;;;;;;15.83;55.81;101511.50;5058134;28;20078;-68
2023/04/21 03:28:08;;;;;;;43.17;23.20;;;;;;;15.92;56.13;101511.28;5069137;28;20028;-68
2023/04/21 03:30:33;;;;;;;42.73;23.33;;;;;;;16.36;55.16;101521.75;5070048;28;20031;-68
2023/04/21 03:32:59;;;;;;;45.60;22.83;;;;;;;16.26;55.12;101505.25;5057626;28;20029;-68
2023/04/21 03:35:24;;;;;;;47.13;23.70;;;;;;;15.81;56.24;101502.75;5046016;28;20036;-68
2023/04/21 03:37:49;;;;;;;45.23;23.10;;;;;;;15.97;55.50;101493.59;5055874;28;20033;-67
2023/04/21 03:40:16;;;;;;;48.37;25.20;;;;;;;16.10;54.91;101500.34;5047784;28;20032;-68
2023/04/21 03:42:42;;;;;;;47.60;24.77;;;;;;;15.70;55.67;101485.38;5049981;28;20124;-68
2023/04/21 03:45:09;;;;;;;47.60;24.73;;;;;;;16.07;54.78;101499.53;5049833;28;20512;-67
2023/04/21 03:47:35;;;;;;;48.70;24.23;;;;;;;16.32;54.11;101491.94;5047579;28;20115;-67
2023/04/21 03:50:05;;;;;;;46.87;24.33;;;;;;;15.43;55.71;101492.94;5050685;28;20111;-68
2023/04/21 03:52:31;;;;;;;49.63;24.87;;;;;;;15.48;57.56;101491.97;5038785;28;20489;-68
2023/04/21 03:54:57;;;;;;;48.43;24.17;;;;;;;15.83;55.10;101485.16;5029034;28;20076;-67
2023/04/21 03:57:22;;;;;;;49.97;25.50;;;;;;;15.98;55.37;101484.81;5029383;28;20033;-67
2023/04/21 03:59:48;;;;;;;50.40;26.20;;;;;;;15.64;57.71;101474.94;5055801;28;20029;-68
2023/04/21 04:02:13;;;;;;;50.00;25.30;;;;;;;15.49;56.99;101460.31;5053449;28;20028;-68
2023/04/21 04:04:38;;;;;;;49.73;25.73;;;;;;;16.17;54.62;101474.72;5048666;28;20033;-69
2023/04/21 04:07:06;;;;;;;49.57;26.93;;;;;;;16.21;54.78;101470.22;5049277;28;20056;-68
2023/04/21 04:09:31;;;;;;;51.47;25.77;;;;;;;16.00;56.12;101477.72;5047190;28;20071;-69
2023/04/21 04:11:57;;;;;;;50.53;25.80;;;;;;;15.91;55.38;101473.53;5035519;28;20037;-68
2023/04/21 04:14:22;;;;;;;50.03;25.67;;;;;;;14.93;60.88;101476.31;5028240;28;20124;-69
2023/04/21 04:16:47;;;;;;;53.03;26.33;;;;;;;15.44;58.80;101468.31;5030169;28;20060;-68
2023/04/21 04:19:13;;;;;;;52.03;26.73;;;;;;;15.56;57.05;101474.25;5038916;28;20071;-68
2023/04/21 04:21:38;;;;;;;52.70;26.57;;;;;;;15.84;57.16;101492.13;5054393;28;20486;-68
2023/04/21 04:24:04;;;;;;;51.37;25.63;;;;;;;15.44;58.11;101459.53;5048322;28;20025;-69
2023/04/21 04:26:32;;;;;;;51.33;26.40;;;;;;;15.23;58.51;101469.59;5047741;28;20025;-70
2023/04/21 04:28:59;;;;;;;50.57;26.47;;;;;;;15.64;57.64;101474.94;5050940;28;20473;-69
2023/04/21 04:31:24;;;;;;;54.80;26.17;;;;;;;15.80;56.63;101479.91;5054342;28;20466;-69
2023/04/21 04:33:50;;;;;;;50.20;25.20;;;;;;;15.46;56.87;101467.44;5027665;28;20040;-69
2023/04/21 04:36:16;;;;;;;55.77;26.07;;;;;;;15.37;57.57;101466.72;5027521;28;20040;-69
2023/04/21 04:38:42;;;;;;;55.97;26.27;;;;;;;15.33;57.70;101464.16;5032896;28;20032;-70
2023/04/21 04:41:07;;;;;;;59.07;27.10;;;;;;;15.52;56.89;101469.94;5046048;28;20035;-69
2023/04/21 04:43:35;;;;;;;56.20;26.93;;;;;;;15.37;58.56;101477.25;5048833;28;20081;-69
2023/04/21 04:46:01;;;;;;;52.90;26.93;;;;;;;15.71;56.13;101471.28;5049695;28;20040;-69
2023/04/21 04:48:26;;;;;;;52.40;25.77;;;;;;;16.22;55.17;101471.94;5046926;28;20021;-69
2023/04/21 04:50:52;;;;;;;54.97;27.63;;;;;;;16.04;55.86;101476.75;5051633;28;20032;-70
2023/04/21 04:53:17;;;;;;;58.13;29.77;;;;;;;16.27;54.60;101472.72;5035748;28;20183;-69
2023/04/21 04:55:42;;;;;;;56.27;27.73;;;;;;;16.31;55.02;101484.94;5029376;28;20124;-69
2023/04/21 04:58:08;;;;;;;55.43;27.33;;;;;;;15.86;56.74;101485.06;5049503;28;20024;-69
2023/04/21 05:00:33;;;;;;;50.60;27.00;;;;;;;15.59;56.73;101476.81;5048001;28;20025;-69
2023/04/21 05:02:59;;;;;;;57.60;28.40;;;;;;;15.53;58.70;101480.44;5064966;28;20025;-69
2023/04/21 05:05:24;;;;;;;54.77;27.23;;;;;;;15.63;57.01;101489.00;5067416;28;20494;-69
2023/04/21 05:07:50;;;;;;;55.93;28.60;;;;;;;15.70;56.88;101482.75;5049631;28;20409;-70
2023/04/21 05:10:15;;;;;;;54.90;28.07;;;;;;;15.55;58.22;101491.81;5065866;28;20036;-70
2023/04/21 05:12:41;;;;;;;55.47;28.03;;;;;;;15.65;57.20;101483.72;5068021;28;20025;-70
2023/04/21 05:15:07;;;;;;;56.77;27.73;;;;;;;15.70;58.95;101476.56;5043510;28;20037;-70
2023/04/21 05:17:33;;;;;;;55.10;27.57;;;;;;;16.13;57.32;101477.44;5033715;28;20075;-70
2023/04/21 05:19:58;;;;;;;56.00;28.77;;;;;;;16.25;55.99;101479.78;5059940;28;20039;-70
2023/04/21 05:22:25;;;;;;;54.70;27.00;;;;;;;15.78;56.88;101478.16;5048614;28;20037;-70
2023/04/21 05:24:51;;;;;;;62.63;28.83;;;;;;;16.00;57.69;101475.06;5049131;28;20046;-70
2023/04/21 05:27:16;;;;;;;53.87;27.40;;;;;;;16.32;55.77;101478.75;5045786;28;20480;-70
2023/04/21 05:29:41;;;;;;;57.20;28.43;;;;;;;16.26;57.21;101476.25;5047854;28;20036;-70
2023/04/21 05:32:07;;;;;;;58.80;29.03;;;;;;;16.44;56.33;101489.03;5067089;28;20059;-70
2023/04/21 05:34:33;;;;;;;52.97;27.40;;;;;;;15.65;57.13;101489.88;5048923;28;20499;-70
2023/04/21 05:36:58;;;;;;;55.13;28.10;;;;;;;16.33;56.77;101493.66;5046536;28;20037;-70
2023/04/21 05:39:26;;;;;;;56.40;27.80;;;;;;;16.37;55.97;101486.56;5063366;28;20116;-69
2023/04/21 05:41:52;;;;;;;55.47;28.13;;;;;;;16.16;56.41;101498.47;5049172;28;20469;-70
2023/04/21 05:44:17;;;;;;;52.03;29.13;;;;;;;16.20;57.18;101501.00;5047688;28;20029;-70
2023/04/21 05:46:42;;;;;;;50.47;27.33;;;;;;;16.60;55.19;101499.19;5048088;28;20021;-71
2023/04/21 05:49:08;;;;;;;55.80;28.53;;;;;;;16.97;55.19;101493.00;5041353;28;20032;-69
2023/04/21 05:51:33;;;;;;;50.60;27.80;;;;;;;16.37;55.77;101503.22;5035040;28;20211;-70
2023/04/21 05:53:59;;;;;;;53.67;28.43;;;;;;;16.58;56.72;101500.97;5031805;28;20030;-70
2023/04/21 05:56:24;;;;;;;51.03;27.53;;;;;;;15.91;56.77;101506.94;5027138;28;20032;-70
2023/04/21 05:58:50;;;;;;;54.07;28.00;;;;;;;16.07;56.89;101505.69;5045988;28;20035;-70
2023/04/21 06:01:15;;;;;;;50.63;26.77;;;;;;;16.04;57.07;101512.78;5051363;28;20039;-71
2023/04/21 06:03:40;;;;;;;55.47;27.40;;;;;;;17.21;55.04;101504.69;5067493;28;20025;-71
2023/04/21 06:06:06;;;;;;;52.03;28.50;;;;;;;18.01;51.53;101509.50;5049940;28;20024;-71
2023/04/21 06:08:32;;;;;;;47.20;26.60;;;;;;;17.52;52.42;101518.84;5061188;28;20025;-71
2023/04/21 06:10:57;;;;;;;52.13;27.90;;;;;;;17.66;51.69;101518.44;5038261;28;20115;-70
2023/04/21 06:13:23;;;;;;;50.00;27.80;;;;;;;17.72;52.48;101505.91;5035452;28;20032;-71
2023/04/21 06:15:48;;;;;;;47.93;26.30;;;;;;;18.14;51.50;101505.53;5055523;28;20027;-71
2023/04/21 06:18:15;;;;;;;47.50;28.03;;;;;;;18.12;50.89;101503.84;5043891;28;20025;-71
2023/04/21 06:20:40;;;;;;;46.87;26.57;;;;;;;17.42;53.00;101511.16;5050395;28;20112;-70
2023/04/21 06:23:06;;;;;;;46.07;26.30;;;;;;;18.06;51.67;101507.56;5050272;28;20171;-71
2023/04/21 06:25:31;;;;;;;46.10;26.80;;;;;;;18.24;51.62;101510.56;5057227;28;20431;-70
2023/04/21 06:27:56;;;;;;;51.40;28.13;;;;;;;17.73;52.33;101504.97;5033438;28;20038;-71
2023/04/21 06:30:22;;;;;;;49.57;28.00;;;;;;;18.20;51.07;101503.63;5030544;28;20033;-71
2023/04/21 06:32:47;;;;;;;50.90;28.77;;;;;;;19.17;49.03;101502.25;5048562;28;20044;-71
2023/04/21 06:35:14;;;;;;;47.37;28.43;;;;;;;18.46;50.88;101505.44;5065837;28;20444;-70
2023/04/21 06:37:40;;;;;;;47.57;27.47;;;;;;;17.34;53.50;101510.50;5047623;28;20030;-70
2023/04/21 06:40:06;;;;;;;47.37;27.77;;;;;;;17.86;51.94;101507.25;5030672;28;20067;-70
2023/04/21 06:42:32;;;;;;;44.67;27.43;;;;;;;17.36;52.31;101516.59;5035054;28;20029;-70
2023/04/21 06:44:57;;;;;;;44.57;26.97;;;;;;;18.19;50.43;101502.78;5042785;28;20025;-70
2023/04/21 06:47:23;;;;;;;46.23;27.00;;;;;;;17.89;52.22;101504.56;5038710;28;20627;-71
2023/04/21 06:49:48;;;;;;;45.57;27.70;;;;;;;18.36;50.31;101499.59;5036123;28;20473;-70
2023/04/21 06:52:13;;;;;;;49.27;27.93;;;;;;;18.48;49.59;101504.47;5049590;28;20411;-70
2023/04/21 06:54:40;;;;;;;49.87;28.83;;;;;;;18.57;50.04;101502.44;5056450;28;20106;-70
2023/04/21 06:57:05;;;;;;;47.57;28.27;;;;;;;18.98;50.06;101497.56;5057254;28;20033;-71
2023/04/21 06:59:31;;;;;;;48.47;28.43;;;;;;;18.53;50.76;101508.75;5049531;28;20036;-70
2023/04/21 07:01:57;;;;;;;51.07;29.53;;;;;;;17.49;54.08;101511.88;5041304;28;20037;-71
2023/04/21 07:04:22;;;;;;;50.43;29.07;;;;;;;18.44;51.67;101502.00;5036143;28;20530;-71
2023/04/21 07:06:48;;;;;;;50.83;30.03;;;;;;;17.11;53.90;101496.13;5049382;28;20037;-71
2023/04/21 07:09:13;;;;;;;53.93;31.77;;;;;;;18.13;51.97;101487.97;5039782;28;20038;-71
2023/04/21 07:11:39;;;;;;;54.37;32.13;;;;;;;18.68;50.43;101497.66;5031855;28;20080;-71
2023/04/21 07:14:05;;;;;;;53.33;31.03;;;;;;;17.68;51.86;101499.00;5033702;28;20021;-71
2023/04/21 07:16:31;;;;;;;57.07;33.00;;;;;;;17.45;53.51;101503.16;5048973;28;20040;-71
2023/04/21 07:18:56;;;;;;;63.33;33.90;;;;;;;17.63;53.14;101492.97;5045101;28;20037;-71
2023/04/21 07:21:22;;;;;;;54.90;32.43;;;;;;;16.81;54.54;101508.34;5048438;28;20435;-71
2023/04/21 07:23:47;;;;;;;62.73;34.83;;;;;;;17.12;53.61;101497.88;5050015;28;20040;-71
2023/04/21 07:26:13;;;;;;;56.33;33.47;;;;;;;18.26;51.24;101488.44;5045462;28;20024;-70
2023/04/21 07:28:39;;;;;;;56.43;32.77;;;;;;;17.49;53.62;101495.13;5049021;28;20029;-70
2023/04/21 07:31:05;;;;;;;58.37;33.40;;;;;;;17.91;52.11;101505.34;5034496;28;20032;-71
2023/04/21 07:33:30;;;;;;;58.73;34.20;;;;;;;18.24;51.23;101506.13;5049235;28;20036;-70
2023/04/21 07:35:56;;;;;;;56.33;31.87;;;;;;;17.94;51.83;101502.66;5047570;28;20037;-72
2023/04/21 07:38:21;;;;;;;57.23;33.17;;;;;;;17.89;50.93;101499.25;5052864;28;20139;-71
2023/04/21 07:40:46;;;;;;;61.40;34.20;;;;;;;18.63;49.39;101497.81;5050453;28;20068;-71
2023/04/21 07:43:12;;;;;;;53.73;33.37;;;;;;;17.53;50.88;101499.41;5049253;28;20114;-71
2023/04/21 07:45:37;;;;;;;54.77;33.93;;;;;;;18.51;49.82;101500.03;5047128;28;20029;-69
2023/04/21 07:48:04;;;;;;;57.63;33.10;;;;;;;17.98;50.46;101499.00;5067502;28;20130;-70
2023/04/21 07:50:30;;;;;;;57.67;35.47;;;;;;;18.70;48.89;101501.13;5068473;28;20085;-69
2023/04/21 07:52:55;;;;;;;59.87;35.10;;;;;;;19.82;47.35;101501.63;5069356;28;20052;-69
2023/04/21 07:55:21;;;;;;;56.17;34.10;;;;;;;19.32;47.85;101509.63;5051788;28;20464;-70
2023/04/21 07:57:46;;;;;;;53.47;32.83;;;;;;;19.80;47.42;101498.16;5061946;28;20035;-69
2023/04/21 08:00:12;;;;;;;54.07;34.63;;;;;;;19.33;47.17;101503.41;5046839;28;20476;-69
2023/04/21 08:02:38;;;;;;;58.90;35.33;;;;;;;19.59;47.69;101504.22;5032507;28;20029;-70
2023/04/21 08:05:04;;;;;;;55.30;33.83;;;;;;;20.28;47.76;101498.94;5048194;28;20029;-70
2023/04/21 08:07:30;;;;;;;59.35;33.05;;;;;;;20.23;45.21;101494.75;5059648;28;20107;-70
2023/04/21 08:09:56;;;;;;;49.75;32.13;;;;;;;21.62;44.44;101483.53;5064199;28;20042;-70
2023/04/21 08:12:21;;;;;;;50.08;31.13;;;;;;;19.98;44.80;101498.38;5067455;28;20147;-70
2023/04/21 08:14:46;;;;;;;50.00;32.22;;;;;;;20.48;44.86;101500.81;5065035;28;20403;-70
2023/04/21 08:17:12;;;;;;;49.42;31.55;;;;;;;20.13;44.48;101494.25;5047973;28;20025;-70
2023/04/21 08:19:37;;;;;;;46.70;31.13;;;;;;;21.55;42.25;101492.75;5041507;28;20493;-70
2023/04/21 08:22:02;;;;;;;45.97;31.17;;;;;;;20.66;43.12;101500.94;5051494;28;20012;-70
2023/04/21 08:24:28;;;;;;;43.17;29.48;;;;;;;20.50;43.04;101498.94;5049012;28;20039;-70
2023/04/21 08:26:53;;;;;;;47.33;31.33;;;;;;;20.54;43.73;101506.75;5047809;28;20028;-70
2023/04/21 08:29:18;;;;;;;45.15;29.73;;;;;;;21.73;41.46;101491.03;5045749;28;20404;-70
2023/04/21 08:31:44;;;;;;;47.13;29.85;;;;;;;22.77;40.75;101490.41;5062485;28;20028;-71
2023/04/21 08:34:09;;;;;;;39.72;25.95;;;;;;;23.08;38.85;101485.31;5052493;28;20431;-71
2023/04/21 08:36:35;;;;;;;41.10;26.38;;;;;;;21.31;42.06;101487.56;5038076;28;20025;-71
2023/04/21 08:39:00;;;;;;;41.92;27.63;;;;;;;22.75;39.15;101484.31;5028580;28;20033;-71
2023/04/21 08:41:26;;;;;;;37.25;25.95;;;;;;;21.41;41.70;101483.56;5051586;28;20028;-71
2023/04/21 08:43:52;;;;;;;36.75;25.02;;;;;;;21.48;41.21;101490.31;5068397;28;20067;-71
2023/04/21 08:46:18;;;;;;;38.60;26.55;;;;;;;21.82;40.71;101486.13;5058155;28;20045;-71
2023/04/21 08:48:45;;;;;;;32.60;22.42;;;;;;;21.61;40.61;101487.13;5049881;28;20122;-71
2023/04/21 08:51:16;;;;;;;34.47;23.35;;;;;;;22.02;40.79;101481.66;5055622;28;20499;-71
2023/04/21 08:53:42;;;;;;;39.70;23.77;;;;;;;21.93;40.43;101476.78;5065704;28;20032;-71
2023/04/21 08:56:07;;;;;;;33.53;22.50;;;;;;;22.09;39.95;101483.09;5046724;28;20017;-71
2023/04/21 08:58:33;;;;;;;31.05;22.73;;;;;;;23.19;38.42;101473.19;5049462;28;20017;-71
2023/04/21 09:00:58;;;;;;;31.77;22.27;;;;;;;22.83;37.05;101479.47;5053030;28;20022;-71
2023/04/21 09:03:25;;;;;;;29.52;21.75;;;;;;;21.85;39.97;101475.34;5059146;28;20044;-71
2023/04/21 09:06:04;;;;;;;27.67;20.05;;;;;;;23.61;38.10;101473.59;5048148;28;20028;-71
2023/04/21 09:08:30;;;;;;;28.17;20.63;;;;;;;24.41;36.11;101476.25;5045404;28;20029;-70
2023/04/21 09:10:56;;;;;;;28.23;18.52;;;;;;;24.45;34.50;101476.94;5047064;28;20115;-71
2023/04/21 09:13:32;;;;;;;28.98;20.45;;;;;;;24.58;34.92;101471.72;5039186;28;20025;-71
2023/04/21 09:15:59;;;;;;;23.85;18.15;;;;;;;23.60;36.27;101479.00;5048703;28;20036;-71
2023/04/21 09:18:30;;;;;;;27.02;18.92;;;;;;;24.11;35.57;101477.09;5048922;28;20035;-71
2023/04/21 09:21:12;;;;;;;27.20;17.98;;;;;;;23.63;35.47;101478.84;5047801;28;20041;-71
2023/04/21 09:23:48;;;;;;;27.85;19.30;;;;;;;23.71;35.72;101484.63;5048687;28;20025;-71
2023/04/21 09:26:15;;;;;;;27.02;18.58;;;;;;;22.84;35.90;101486.50;5063227;28;20048;-71
2023/04/21 09:28:45;;;;;;;23.25;16.75;;;;;;;24.30;35.19;101470.69;5053757;28;20061;-71
2023/04/21 09:31:15;;;;;;;24.10;17.25;;;;;;;23.74;34.63;101475.59;5048966;28;20021;-71
2023/04/21 09:33:55;;;;;;;22.83;17.10;;;;;;;25.11;33.34;101474.84;5048999;28;20492;-71
2023/04/21 09:36:23;;;;;;;24.00;17.55;;;;;;;24.87;33.11;101486.94;5062956;28;20083;-71
2023/04/21 09:39:00;;;;;;;23.48;18.38;;;;;;;23.24;35.63;101466.72;5062193;28;20485;-71
2023/04/21 09:41:26;;;;;;;25.40;18.73;;;;;;;21.41;37.36;101480.91;5050663;28;20072;-71
2023/04/21 09:43:51;;;;;;;24.92;17.92;;;;;;;21.22;38.17;101474.69;5052199;28;20056;-71
2023/04/21 09:46:18;;;;;;;25.85;18.40;;;;;;;22.19;37.71;101468.41;5048251;28;20071;-71
2023/04/21 09:48:45;;;;;;;22.58;16.70;;;;;;;22.95;36.50;101463.78;5051859;28;20040;-69
2023/04/21 09:51:13;;;;;;;27.48;19.95;;;;;;;23.49;35.55;101464.47;5040951;28;20116;-69
2023/04/21 09:53:40;;;;;;;27.73;18.63;;;;;;;24.22;34.71;101463.97;5032401;28;20033;-70
2023/04/21 09:56:14;;;;;;;27.45;18.92;;;;;;;23.51;35.07;101459.91;5050636;28;20036;-70
2023/04/21 09:59:01;;;;;;;25.17;17.63;;;;;;;24.78;34.21;101468.75;5070492;28;20094;-70
2023/04/21 10:01:29;;;;;;;25.60;18.45;;;;;;;24.16;34.63;101466.97;5067817;28;20078;-70
2023/04/21 10:03:54;;;;;;;24.85;17.30;;;;;;;23.43;34.98;101458.59;5071932;28;20031;-69
2023/04/21 10:06:20;;;;;;;24.15;17.60;;;;;;;24.74;34.13;101453.84;5069965;28;20029;-69
2023/04/21 10:08:48;;;;;;;22.25;16.55;;;;;;;22.58;36.63;101458.53;5071296;28;20039;-70
2023/04/21 10:11:14;;;;;;;20.02;15.80;;;;;;;22.83;35.33;101467.91;5071010;28;20024;-69
2023/04/21 10:13:40;;;;;;;21.98;16.77;;;;;;;22.52;36.22;101462.38;5072234;28;20040;-70
2023/04/21 10:16:08;;;;;;;26.50;18.23;;;;;;;24.06;34.92;101457.78;5070577;28;20051;-70
2023/04/21 10:18:41;;;;;;;24.25;17.60;;;;;;;23.99;33.91;101453.75;5069058;28;20032;-70
2023/04/21 10:21:11;;;;;;;23.92;17.02;;;;;;;24.54;33.49;101452.38;5071702;28;20033;-70
2023/04/21 10:23:44;;;;;;;22.63;16.15;;;;;;;25.52;32.66;101442.00;5072033;28;20424;-71
2023/04/21 10:26:16;;;;;;;22.23;16.95;;;;;;;24.71;33.17;101456.72;5069783;28;20028;-70
2023/04/21 10:29:00;;;;;;;27.52;17.27;;;;;;;23.13;35.59;101444.16;5070766;28;20024;-70
2023/04/21 10:31:33;;;;;;;20.83;15.13;;;;;;;24.42;33.74;101448.59;5071614;28;20388;-70
2023/04/21 10:34:07;;;;;;;20.58;14.85;;;;;;;23.65;35.33;101439.59;5067955;28;20508;-70
2023/04/21 10:36:45;;;;;;;20.20;14.93;;;;;;;23.48;34.70;101438.72;5072043;28;20056;-70
2023/04/21 10:39:24;;;;;;;20.58;15.43;;;;;;;23.76;34.12;101431.00;5070925;28;20127;-70
2023/04/21 10:41:50;;;;;;;21.50;16.63;;;;;;;24.96;33.47;101418.66;5070533;28;20024;-69
2023/04/21 10:44:16;;;;;;;21.88;16.02;;;;;;;25.41;33.36;101418.59;5050920;28;20018;-69
2023/04/21 10:46:49;;;;;;;21.55;16.27;;;;;;;25.55;33.17;101410.56;5030913;28;20036;-69
2023/04/21 10:49:23;;;;;;;19.25;14.60;;;;;;;25.65;32.42;101410.81;5029514;28;20043;-69
2023/04/21 10:52:04;;;;;;;19.35;14.23;;;;;;;25.51;32.12;101403.69;5030226;28;20077;-69
2023/04/21 10:54:44;;;;;;;18.35;14.55;;;;;;;25.04;32.56;101404.81;5045723;28;20029;-69
2023/04/21 10:57:12;;;;;;;21.08;15.57;;;;;;;25.48;32.50;101403.84;5049263;28;20041;-69
2023/04/21 10:59:38;;;;;;;18.30;14.75;;;;;;;27.65;30.41;101389.16;5050039;28;20025;-69
2023/04/21 11:02:10;;;;;;;20.20;14.77;;;;;;;27.89;29.21;101389.13;5049341;28;20052;-69
2023/04/21 11:04:35;;;;;;;20.55;14.60;;;;;;;26.82;30.24;101390.56;5059405;28;20032;-70
2023/04/21 11:07:15;;;;;;;19.27;15.23;;;;;;;26.80;29.70;101392.50;5070652;28;20027;-69